sensor_id;sensor_type;location;lat;lon;timestamp;temperature;humidity
27900;DHT22;15243;50.726;7.080;2023-04-03T15:41:55;20.00;1.00
27900;DHT22;15243;50.726;7.080;2023-04-03T15:44:26;20.00;1.00
27900;DHT22;15243;50.726;7.080;2023-04-03T15:46:53;20.00;1.00
27900;DHT22;15243;50.726;7.080;2023-04-03T15:52:14;20.10;1.00
27900;DHT22;15243;50.726;7.080;2023-04-03T15:54:41;17.20;1.00
27900;DHT22;15243;50.726;7.080;2023-04-03T15:57:07;18.00;1.00
27900;DHT22;15243;50.726;7.080;2023-04-03T15:59:33;18.40;1.00
27900;DHT22;15243;50.726;7.080;2023-04-03T16:02:01;18.00;1.00
27900;DHT22;15243;50.726;7.080;2023-04-03T16:04:30;16.90;1.00
27900;DHT22;15243;50.726;7.080;2023-04-03T16:07:01;15.00;1.00
27900;DHT22;15243;50.726;7.080;2023-04-03T16:09:29;14.50;1.00
27900;DHT22;15243;50.726;7.080;2023-04-03T16:11:56;14.00;1.00
27900;DHT22;15243;50.726;7.080;2023-04-03T16:14:22;13.50;1.00
27900;DHT22;15243;50.726;7.080;2023-04-03T16:16:49;13.20;1.00
27900;DHT22;15243;50.726;7.080;2023-04-03T16:19:16;13.50;1.00
27900;DHT22;15243;50.726;7.080;2023-04-03T16:21:43;13.40;1.00
27900;DHT22;15243;50.726;7.080;2023-04-03T16:24:10;12.80;1.00
27900;DHT22;15243;50.726;7.080;2023-04-03T16:26:37;12.60;1.00
27900;DHT22;15243;50.726;7.080;2023-04-03T16:29:04;12.40;1.00
27900;DHT22;15243;50.726;7.080;2023-04-03T16:31:32;12.50;1.00
27900;DHT22;15243;50.726;7.080;2023-04-03T16:34:00;12.50;1.00
27900;DHT22;15243;50.726;7.080;2023-04-03T16:36:27;12.50;1.00
27900;DHT22;15243;50.726;7.080;2023-04-03T16:38:54;11.90;1.00
27900;DHT22;15243;50.726;7.080;2023-04-03T16:41:21;11.80;1.00
27900;DHT22;15243;50.726;7.080;2023-04-03T16:43:48;11.60;1.00
27900;DHT22;15243;50.726;7.080;2023-04-03T16:46:16;11.90;1.00
27900;DHT22;15243;50.726;7.080;2023-04-03T16:48:43;11.80;1.00
27900;DHT22;15243;50.726;7.080;2023-04-03T16:51:12;11.40;1.00
27900;DHT22;15243;50.726;7.080;2023-04-03T16:53:39;11.20;1.00
27900;DHT22;15243;50.726;7.080;2023-04-03T16:56:06;10.70;5.80
27900;DHT22;15243;50.726;7.080;2023-04-03T16:58:33;10.70;8.80
27900;DHT22;15243;50.726;7.080;2023-04-03T17:01:09;10.70;10.40
27900;DHT22;15243;50.726;7.080;2023-04-03T17:03:36;10.60;9.90
27900;DHT22;15243;50.726;7.080;2023-04-03T17:06:03;10.60;10.10
27900;DHT22;15243;50.726;7.080;2023-04-03T17:08:30;10.60;9.90
27900;DHT22;15243;50.726;7.080;2023-04-03T17:10:57;10.60;12.20
27900;DHT22;15243;50.726;7.080;2023-04-03T17:13:24;10.50;11.60
27900;DHT22;15243;50.726;7.080;2023-04-03T17:15:58;10.20;14.10
27900;DHT22;15243;50.726;7.080;2023-04-03T17:18:26;10.30;13.80
27900;DHT22;15243;50.726;7.080;2023-04-03T17:20:55;10.30;14.60
27900;DHT22;15243;50.726;7.080;2023-04-03T17:23:24;9.80;13.10
27900;DHT22;15243;50.726;7.080;2023-04-03T17:25:52;9.60;14.70
27900;DHT22;15243;50.726;7.080;2023-04-03T17:28:22;9.60;17.50
27900;DHT22;15243;50.726;7.080;2023-04-03T17:30:55;9.50;18.30
27900;DHT22;15243;50.726;7.080;2023-04-03T17:33:22;9.40;20.00
27900;DHT22;15243;50.726;7.080;2023-04-03T17:35:50;9.30;24.50
27900;DHT22;15243;50.726;7.080;2023-04-03T17:38:17;9.20;22.60
27900;DHT22;15243;50.726;7.080;2023-04-03T17:40:44;9.10;21.90
27900;DHT22;15243;50.726;7.080;2023-04-03T17:43:11;9.10;26.00
27900;DHT22;15243;50.726;7.080;2023-04-03T17:45:38;8.90;22.60
27900;DHT22;15243;50.726;7.080;2023-04-03T18:06:54;8.10;52.20
27900;DHT22;15243;50.726;7.080;2023-04-03T18:09:29;8.00;50.80
27900;DHT22;15243;50.726;7.080;2023-04-03T18:12:01;7.90;53.90
27900;DHT22;15243;50.726;7.080;2023-04-03T18:14:29;7.90;65.50
27900;DHT22;15243;50.726;7.080;2023-04-03T18:16:56;7.80;57.80
27900;DHT22;15243;50.726;7.080;2023-04-03T18:19:24;7.70;65.80
27900;DHT22;15243;50.726;7.080;2023-04-03T18:21:56;7.60;68.20
27900;DHT22;15243;50.726;7.080;2023-04-03T18:24:26;7.50;86.00
27900;DHT22;15243;50.726;7.080;2023-04-03T18:26:57;7.50;81.90
27900;DHT22;15243;50.726;7.080;2023-04-03T18:29:27;7.30;98.70
27900;DHT22;15243;50.726;7.080;2023-04-03T18:31:56;7.30;99.90
27900;DHT22;15243;50.726;7.080;2023-04-03T18:34:25;7.20;99.90
27900;DHT22;15243;50.726;7.080;2023-04-03T18:36:54;7.10;99.90
27900;DHT22;15243;50.726;7.080;2023-04-03T18:39:23;7.10;99.90
27900;DHT22;15243;50.726;7.080;2023-04-03T18:41:53;7.00;99.90
27900;DHT22;15243;50.726;7.080;2023-04-03T18:44:22;6.90;99.90
27900;DHT22;15243;50.726;7.080;2023-04-03T18:46:52;6.90;99.90
27900;DHT22;15243;50.726;7.080;2023-04-03T18:49:19;6.80;99.90
27900;DHT22;15243;50.726;7.080;2023-04-03T18:51:49;6.80;99.90
27900;DHT22;15243;50.726;7.080;2023-04-03T18:54:16;6.80;99.90
27900;DHT22;15243;50.726;7.080;2023-04-03T18:56:46;6.70;99.90
27900;DHT22;15243;50.726;7.080;2023-04-03T18:59:13;6.60;99.90
27900;DHT22;15243;50.726;7.080;2023-04-03T19:01:49;6.50;99.90
27900;DHT22;15243;50.726;7.080;2023-04-03T19:04:19;6.40;99.90
27900;DHT22;15243;50.726;7.080;2023-04-03T19:06:48;6.40;99.90
27900;DHT22;15243;50.726;7.080;2023-04-03T19:09:15;6.40;99.90
27900;DHT22;15243;50.726;7.080;2023-04-03T19:11:45;6.30;99.90
27900;DHT22;15243;50.726;7.080;2023-04-03T19:14:12;6.30;99.90
27900;DHT22;15243;50.726;7.080;2023-04-03T19:16:43;6.30;99.90
27900;DHT22;15243;50.726;7.080;2023-04-03T19:19:11;6.30;99.90
27900;DHT22;15243;50.726;7.080;2023-04-03T19:21:39;6.40;99.90
27900;DHT22;15243;50.726;7.080;2023-04-03T19:24:11;6.30;99.90
27900;DHT22;15243;50.726;7.080;2023-04-03T19:26:40;6.20;99.90
27900;DHT22;15243;50.726;7.080;2023-04-03T19:29:10;6.20;99.90
27900;DHT22;15243;50.726;7.080;2023-04-03T19:31:38;6.10;99.90
27900;DHT22;15243;50.726;7.080;2023-04-03T19:34:06;6.00;99.90
27900;DHT22;15243;50.726;7.080;2023-04-03T19:36:34;6.00;99.90
27900;DHT22;15243;50.726;7.080;2023-04-03T19:39:03;5.90;99.90
27900;DHT22;15243;50.726;7.080;2023-04-03T19:41:33;5.90;99.90
27900;DHT22;15243;50.726;7.080;2023-04-03T19:44:03;5.90;99.90
27900;DHT22;15243;50.726;7.080;2023-04-03T19:46:33;5.80;99.90
27900;DHT22;15243;50.726;7.080;2023-04-03T19:49:00;5.70;99.90
27900;DHT22;15243;50.726;7.080;2023-04-03T19:51:28;5.70;99.90
27900;DHT22;15243;50.726;7.080;2023-04-03T19:53:56;5.60;99.90
27900;DHT22;15243;50.726;7.080;2023-04-03T19:56:25;5.60;99.90
27900;DHT22;15243;50.726;7.080;2023-04-03T19:59:01;5.50;99.90
27900;DHT22;15243;50.726;7.080;2023-04-03T20:01:30;5.50;99.90
27900;DHT22;15243;50.726;7.080;2023-04-03T20:04:00;5.50;99.90
27900;DHT22;15243;50.726;7.080;2023-04-03T20:06:31;5.40;99.90
27900;DHT22;15243;50.726;7.080;2023-04-03T20:08:58;5.40;99.90
27900;DHT22;15243;50.726;7.080;2023-04-03T20:11:28;5.40;99.90
27900;DHT22;15243;50.726;7.080;2023-04-03T20:13:56;5.40;99.90
27900;DHT22;15243;50.726;7.080;2023-04-03T20:16:23;5.30;99.90
27900;DHT22;15243;50.726;7.080;2023-04-03T20:18:53;5.20;99.90
27900;DHT22;15243;50.726;7.080;2023-04-03T20:21:30;5.10;99.90
27900;DHT22;15243;50.726;7.080;2023-04-03T20:23:59;5.10;99.90
27900;DHT22;15243;50.726;7.080;2023-04-03T20:26:30;5.00;99.90
27900;DHT22;15243;50.726;7.080;2023-04-03T20:28:59;5.10;99.90
27900;DHT22;15243;50.726;7.080;2023-04-03T20:31:27;5.00;99.90
27900;DHT22;15243;50.726;7.080;2023-04-03T20:33:56;5.00;99.90
27900;DHT22;15243;50.726;7.080;2023-04-03T20:36:28;4.90;99.90
27900;DHT22;15243;50.726;7.080;2023-04-03T20:38:56;4.90;99.90
27900;DHT22;15243;50.726;7.080;2023-04-03T20:41:23;4.80;99.90
27900;DHT22;15243;50.726;7.080;2023-04-03T20:43:51;4.80;99.90
27900;DHT22;15243;50.726;7.080;2023-04-03T20:46:19;4.70;99.90
27900;DHT22;15243;50.726;7.080;2023-04-03T20:48:46;4.70;99.90
27900;DHT22;15243;50.726;7.080;2023-04-03T20:51:18;4.60;99.90
27900;DHT22;15243;50.726;7.080;2023-04-03T20:53:46;4.50;99.90
27900;DHT22;15243;50.726;7.080;2023-04-03T20:56:14;4.50;99.90
27900;DHT22;15243;50.726;7.080;2023-04-03T20:58:42;4.50;99.90
27900;DHT22;15243;50.726;7.080;2023-04-03T21:01:22;4.40;99.90
27900;DHT22;15243;50.726;7.080;2023-04-03T21:03:54;4.40;99.90
27900;DHT22;15243;50.726;7.080;2023-04-03T21:20:39;4.30;99.90
27900;DHT22;15243;50.726;7.080;2023-04-03T21:23:07;4.10;99.90
27900;DHT22;15243;50.726;7.080;2023-04-03T21:25:34;4.10;99.90
27900;DHT22;15243;50.726;7.080;2023-04-03T21:28:03;3.90;99.90
27900;DHT22;15243;50.726;7.080;2023-04-03T21:30:32;3.90;99.90
27900;DHT22;15243;50.726;7.080;2023-04-03T21:32:59;3.90;99.90
27900;DHT22;15243;50.726;7.080;2023-04-03T21:35:29;3.90;99.90
27900;DHT22;15243;50.726;7.080;2023-04-03T21:37:56;3.90;99.90
27900;DHT22;15243;50.726;7.080;2023-04-03T21:40:24;3.90;99.90
27900;DHT22;15243;50.726;7.080;2023-04-03T21:42:53;3.80;99.90
27900;DHT22;15243;50.726;7.080;2023-04-03T21:45:20;3.70;99.90
27900;DHT22;15243;50.726;7.080;2023-04-03T21:47:47;3.60;99.90
27900;DHT22;15243;50.726;7.080;2023-04-03T21:50:14;3.70;99.90
27900;DHT22;15243;50.726;7.080;2023-04-03T21:52:43;3.60;99.90
27900;DHT22;15243;50.726;7.080;2023-04-03T21:55:10;3.50;99.90
27900;DHT22;15243;50.726;7.080;2023-04-03T21:57:38;3.50;99.90
27900;DHT22;15243;50.726;7.080;2023-04-03T22:00:06;3.50;99.90
27900;DHT22;15243;50.726;7.080;2023-04-03T22:02:39;3.50;99.90
27900;DHT22;15243;50.726;7.080;2023-04-03T22:05:08;3.50;99.90
27900;DHT22;15243;50.726;7.080;2023-04-03T22:07:35;3.40;99.90
27900;DHT22;15243;50.726;7.080;2023-04-03T22:10:03;3.30;99.90
27900;DHT22;15243;50.726;7.080;2023-04-03T22:12:31;3.30;99.90
27900;DHT22;15243;50.726;7.080;2023-04-03T22:14:58;3.30;99.90
27900;DHT22;15243;50.726;7.080;2023-04-03T22:17:29;3.20;99.90
27900;DHT22;15243;50.726;7.080;2023-04-03T22:19:57;3.10;99.90
27900;DHT22;15243;50.726;7.080;2023-04-03T22:22:25;3.10;99.90
27900;DHT22;15243;50.726;7.080;2023-04-03T22:24:52;3.20;99.90
27900;DHT22;15243;50.726;7.080;2023-04-03T22:27:19;3.10;99.90
27900;DHT22;15243;50.726;7.080;2023-04-03T22:29:47;3.10;99.90
27900;DHT22;15243;50.726;7.080;2023-04-03T22:32:13;3.00;99.90
27900;DHT22;15243;50.726;7.080;2023-04-03T22:34:41;3.00;99.90
27900;DHT22;15243;50.726;7.080;2023-04-03T22:37:08;2.90;99.90
27900;DHT22;15243;50.726;7.080;2023-04-03T22:39:35;2.90;99.90
27900;DHT22;15243;50.726;7.080;2023-04-03T22:42:02;2.80;99.90
27900;DHT22;15243;50.726;7.080;2023-04-03T22:44:30;2.80;99.90
27900;DHT22;15243;50.726;7.080;2023-04-03T22:47:02;2.80;99.90
27900;DHT22;15243;50.726;7.080;2023-04-03T22:49:29;2.60;99.90
27900;DHT22;15243;50.726;7.080;2023-04-03T22:51:57;2.60;99.90
27900;DHT22;15243;50.726;7.080;2023-04-03T22:54:25;2.60;99.90
27900;DHT22;15243;50.726;7.080;2023-04-03T22:56:54;2.50;99.90
27900;DHT22;15243;50.726;7.080;2023-04-03T22:59:21;2.50;99.90
27900;DHT22;15243;50.726;7.080;2023-04-03T23:01:48;2.50;99.90
27900;DHT22;15243;50.726;7.080;2023-04-03T23:04:15;2.40;99.90
27900;DHT22;15243;50.726;7.080;2023-04-03T23:06:42;2.30;99.90
27900;DHT22;15243;50.726;7.080;2023-04-03T23:09:09;2.40;99.90
27900;DHT22;15243;50.726;7.080;2023-04-03T23:11:36;2.40;99.90
27900;DHT22;15243;50.726;7.080;2023-04-03T23:14:03;2.40;99.90
27900;DHT22;15243;50.726;7.080;2023-04-03T23:16:31;2.40;99.90
27900;DHT22;15243;50.726;7.080;2023-04-03T23:18:58;2.20;99.90
27900;DHT22;15243;50.726;7.080;2023-04-03T23:21:26;2.20;99.90
27900;DHT22;15243;50.726;7.080;2023-04-03T23:23:53;2.20;99.90
27900;DHT22;15243;50.726;7.080;2023-04-03T23:26:20;2.10;99.90
27900;DHT22;15243;50.726;7.080;2023-04-03T23:28:47;2.10;99.90
27900;DHT22;15243;50.726;7.080;2023-04-03T23:31:14;2.20;99.90
27900;DHT22;15243;50.726;7.080;2023-04-03T23:33:41;2.10;99.90
27900;DHT22;15243;50.726;7.080;2023-04-03T23:36:10;2.10;99.90
27900;DHT22;15243;50.726;7.080;2023-04-03T23:38:40;2.00;99.90
27900;DHT22;15243;50.726;7.080;2023-04-03T23:41:08;2.00;99.90
27900;DHT22;15243;50.726;7.080;2023-04-03T23:43:35;2.00;99.90
27900;DHT22;15243;50.726;7.080;2023-04-03T23:46:03;2.00;99.90
27900;DHT22;15243;50.726;7.080;2023-04-03T23:48:31;1.90;99.90
27900;DHT22;15243;50.726;7.080;2023-04-03T23:50:58;1.70;99.90
27900;DHT22;15243;50.726;7.080;2023-04-03T23:53:24;1.70;99.90
27900;DHT22;15243;50.726;7.080;2023-04-03T23:55:51;1.60;99.90
27900;DHT22;15243;50.726;7.080;2023-04-03T23:58:18;1.70;99.90
